Time;durP1;ratioP1;P1;durP2;ratioP2;P2;SDS_P1;SDS_P2;PMS_P1;PMS_P2;Temp;Humidity;BMP_temperature;BMP_pressure;BME280_temperature;BME280_humidity;BME280_pressure;Samples;Min_cycle;Max_cycle;Signal;HPM_P1;HPM_P2
2022/07/22 00:01:02;;;;;;;8.65;6.25;;;;;;;;;;5061944;28;20124;-86
2022/07/22 00:03:28;;;;;;;9.75;6.90;;;;;;;;;;5068299;28;20540;-84
2022/07/22 00:05:55;;;;;;;8.20;6.50;;;;;;;;;;5075890;28;20025;-85
2022/07/22 00:08:21;;;;;;;9.82;6.72;;;;;;;;;;5055827;28;20028;-84
2022/07/22 00:10:47;;;;;;;9.70;6.57;;;;;;;;;;5053448;28;20372;-85
2022/07/22 00:13:13;;;;;;;8.48;6.32;;;;;;;;;;5073267;28;20466;-85
2022/07/22 00:15:39;;;;;;;9.05;6.32;;;;;;;;;;5056763;28;20394;-85
2022/07/22 00:18:05;;;;;;;10.80;7.25;;;;;;;;;;5046161;28;20067;-85
2022/07/22 00:20:31;;;;;;;10.70;6.85;;;;;;;;;;5055152;28;20021;-85
2022/07/22 00:22:57;;;;;;;10.77;7.43;;;;;;;;;;5054383;28;20033;-84
2022/07/22 00:25:23;;;;;;;9.82;6.90;;;;;;;;;;5052743;28;20482;-86
2022/07/22 00:27:49;;;;;;;9.15;6.80;;;;;;;;;;5041731;28;20039;-85
2022/07/22 00:30:15;;;;;;;10.05;7.38;;;;;;;;;;5054334;28;20543;-85
2022/07/22 00:32:41;;;;;;;10.48;7.80;;;;;;;;;;5035363;28;20108;-86
2022/07/22 00:35:08;;;;;;;10.25;7.03;;;;;;;;;;5052789;28;20037;-85
2022/07/22 00:37:34;;;;;;;9.55;7.07;;;;;;;;;;5038180;28;20033;-85
2022/07/22 00:40:00;;;;;;;9.77;7.32;;;;;;;;;;5071753;28;20051;-85
2022/07/22 00:42:26;;;;;;;9.82;7.05;;;;;;;;;;5074595;28;20256;-85
2022/07/22 00:44:52;;;;;;;10.38;7.40;;;;;;;;;;5063418;28;20047;-85
2022/07/22 00:47:18;;;;;;;10.32;7.20;;;;;;;;;;5053470;28;20028;-85
2022/07/22 00:49:44;;;;;;;10.05;7.35;;;;;;;;;;5035442;28;20025;-86
2022/07/22 00:52:11;;;;;;;10.80;7.18;;;;;;;;;;5058892;28;20051;-85
2022/07/22 00:54:37;;;;;;;9.93;7.20;;;;;;;;;;5043534;28;20025;-87
2022/07/22 00:57:03;;;;;;;9.27;7.53;;;;;;;;;;5032867;28;20155;-86
2022/07/22 00:59:29;;;;;;;11.32;7.70;;;;;;;;;;5016505;28;20033;-86
2022/07/22 01:01:56;;;;;;;10.18;7.00;;;;;;;;;;5046645;28;20060;-85
2022/07/22 01:04:22;;;;;;;10.35;7.22;;;;;;;;;;5043262;28;21497;-86
2022/07/22 01:06:48;;;;;;;11.02;8.10;;;;;;;;;;5056037;28;20015;-86
2022/07/22 01:09:14;;;;;;;10.43;7.40;;;;;;;;;;5054951;28;20075;-86
2022/07/22 01:11:41;;;;;;;8.85;7.15;;;;;;;;;;5034777;28;20559;-86
2022/07/22 01:14:07;;;;;;;9.02;6.90;;;;;;;;;;5035254;28;20025;-86
2022/07/22 01:16:34;;;;;;;10.48;7.60;;;;;;;;;;5068161;28;20033;-86
2022/07/22 01:19:00;;;;;;;13.77;7.93;;;;;;;;;;5045293;28;20025;-86
2022/07/22 01:21:26;;;;;;;10.73;7.57;;;;;;;;;;5034697;28;20033;-86
2022/07/22 01:23:52;;;;;;;9.20;7.30;;;;;;;;;;5053397;28;20017;-86
2022/07/22 01:26:18;;;;;;;9.43;6.90;;;;;;;;;;5048686;28;20048;-86
2022/07/22 01:28:45;;;;;;;9.63;7.18;;;;;;;;;;5072903;28;20054;-86
2022/07/22 01:31:11;;;;;;;11.27;8.68;;;;;;;;;;5064789;28;20562;-86
2022/07/22 01:33:37;;;;;;;10.35;7.80;;;;;;;;;;5052530;28;20115;-86
2022/07/22 01:36:04;;;;;;;11.73;8.45;;;;;;;;;;5048728;28;20029;-86
2022/07/22 01:38:30;;;;;;;10.55;7.22;;;;;;;;;;5034633;28;20529;-86
2022/07/22 01:40:56;;;;;;;11.85;8.52;;;;;;;;;;5034303;28;20063;-86
2022/07/22 01:43:23;;;;;;;10.57;7.68;;;;;;;;;;5052262;28;20067;-86
2022/07/22 01:45:50;;;;;;;11.15;8.50;;;;;;;;;;5052140;28;20064;-86
2022/07/22 01:48:17;;;;;;;10.80;7.65;;;;;;;;;;5049099;28;20055;-86
2022/07/22 01:50:43;;;;;;;10.82;7.32;;;;;;;;;;5051625;28;20029;-86
2022/07/22 01:53:09;;;;;;;10.20;7.65;;;;;;;;;;5050982;28;20025;-86
2022/07/22 01:55:36;;;;;;;9.60;7.47;;;;;;;;;;5033214;28;20494;-86
2022/07/22 01:58:03;;;;;;;10.10;7.80;;;;;;;;;;5053866;28;20115;-86
2022/07/22 02:00:30;;;;;;;11.15;8.25;;;;;;;;;;5050869;28;20029;-86
2022/07/22 02:02:56;;;;;;;11.05;7.68;;;;;;;;;;5045722;28;20072;-86
2022/07/22 02:05:22;;;;;;;18.15;8.95;;;;;;;;;;5033146;28;20395;-86
2022/07/22 02:07:48;;;;;;;11.60;8.57;;;;;;;;;;5019149;28;20028;-86
2022/07/22 02:10:14;;;;;;;10.10;7.63;;;;;;;;;;5051962;28;20025;-86
2022/07/22 02:12:40;;;;;;;11.65;8.68;;;;;;;;;;5051405;28;20025;-87
2022/07/22 02:15:06;;;;;;;12.25;8.10;;;;;;;;;;5033457;28;20477;-86
2022/07/22 02:17:36;;;;;;;12.73;8.30;;;;;;;;;;5035539;28;20115;-86
2022/07/22 02:20:03;;;;;;;9.93;7.90;;;;;;;;;;5064881;28;20333;-86
2022/07/22 02:22:29;;;;;;;11.57;8.82;;;;;;;;;;5050564;28;20025;-87
2022/07/22 02:24:55;;;;;;;10.70;8.25;;;;;;;;;;5065971;28;20024;-86
2022/07/22 02:27:21;;;;;;;10.02;8.45;;;;;;;;;;5050612;28;20506;-86
2022/07/22 02:29:47;;;;;;;11.85;8.43;;;;;;;;;;5032585;28;20025;-86
2022/07/22 02:32:13;;;;;;;11.40;8.13;;;;;;;;;;5023483;28;20033;-86
2022/07/22 02:34:39;;;;;;;12.25;8.57;;;;;;;;;;5051251;28;20023;-86
2022/07/22 02:37:05;;;;;;;11.80;8.95;;;;;;;;;;5051622;28;20025;-86
2022/07/22 02:39:31;;;;;;;10.90;8.70;;;;;;;;;;5069924;28;20036;-86
2022/07/22 02:41:57;;;;;;;10.68;8.85;;;;;;;;;;5071162;28;20048;-87
2022/07/22 02:44:23;;;;;;;13.52;9.30;;;;;;;;;;5034446;28;20502;-87
2022/07/22 02:46:49;;;;;;;11.65;9.45;;;;;;;;;;5040335;28;20109;-86
2022/07/22 02:49:15;;;;;;;11.85;8.52;;;;;;;;;;5031478;28;20181;-87
2022/07/22 02:51:41;;;;;;;11.30;8.95;;;;;;;;;;5049790;28;20120;-87
2022/07/22 02:54:07;;;;;;;12.48;8.95;;;;;;;;;;5050786;28;20530;-87
2022/07/22 02:56:33;;;;;;;12.40;9.32;;;;;;;;;;5032963;28;20363;-87
2022/07/22 02:58:59;;;;;;;15.15;10.02;;;;;;;;;;5032862;28;20033;-87
2022/07/22 03:01:26;;;;;;;11.50;8.68;;;;;;;;;;5055952;28;20510;-87
2022/07/22 03:03:52;;;;;;;18.08;9.95;;;;;;;;;;5045074;28;20021;-87
2022/07/22 03:06:18;;;;;;;12.82;8.77;;;;;;;;;;5064987;28;20027;-87
2022/07/22 03:08:44;;;;;;;10.68;8.25;;;;;;;;;;5057331;28;20355;-87
2022/07/22 03:11:10;;;;;;;12.43;9.27;;;;;;;;;;5037488;28;20028;-86
2022/07/22 03:13:36;;;;;;;12.43;9.98;;;;;;;;;;5055072;28;20067;-87
2022/07/22 03:16:02;;;;;;;11.80;9.05;;;;;;;;;;5056801;28;20060;-85
2022/07/22 03:18:28;;;;;;;11.98;9.32;;;;;;;;;;5054469;28;20032;-85
2022/07/22 03:20:54;;;;;;;11.98;9.32;;;;;;;;;;5043541;28;20033;-84
2022/07/22 03:23:20;;;;;;;12.32;8.93;;;;;;;;;;5061598;28;20113;-84
2022/07/22 03:25:46;;;;;;;11.13;8.40;;;;;;;;;;5043778;28;20049;-84
2022/07/22 03:28:12;;;;;;;11.73;9.13;;;;;;;;;;5058769;28;20041;-85
2022/07/22 03:30:38;;;;;;;11.98;9.07;;;;;;;;;;5046452;28;20021;-84
2022/07/22 03:33:04;;;;;;;12.45;9.45;;;;;;;;;;5063355;28;20029;-85
2022/07/22 03:35:30;;;;;;;12.25;9.05;;;;;;;;;;5063413;28;20033;-84
2022/07/22 03:37:57;;;;;;;12.45;9.75;;;;;;;;;;5061705;28;20028;-84
2022/07/22 03:40:23;;;;;;;13.95;9.32;;;;;;;;;;5044245;28;20229;-84
2022/07/22 03:42:49;;;;;;;11.88;9.02;;;;;;;;;;5063867;28;20394;-84
2022/07/22 03:45:15;;;;;;;13.20;10.75;;;;;;;;;;5069083;28;20029;-85
2022/07/22 03:47:41;;;;;;;13.68;9.75;;;;;;;;;;5041497;28;20548;-84
2022/07/22 03:50:07;;;;;;;12.95;9.02;;;;;;;;;;5059736;28;20025;-85
2022/07/22 03:52:33;;;;;;;13.30;9.63;;;;;;;;;;5063116;28;20037;-84
2022/07/22 03:54:59;;;;;;;12.65;9.52;;;;;;;;;;5062630;28;20115;-84
2022/07/22 03:57:27;;;;;;;14.30;10.18;;;;;;;;;;5061208;28;20068;-84
2022/07/22 03:59:53;;;;;;;13.35;9.10;;;;;;;;;;5075626;28;20410;-84
2022/07/22 04:02:19;;;;;;;15.30;10.65;;;;;;;;;;5044130;28;20029;-84
2022/07/22 04:04:45;;;;;;;15.73;10.35;;;;;;;;;;5044005;28;20458;-84
2022/07/22 04:07:12;;;;;;;14.38;10.32;;;;;;;;;;5057586;28;20035;-84
2022/07/22 04:09:38;;;;;;;12.70;10.02;;;;;;;;;;5079126;28;20021;-84
2022/07/22 04:12:05;;;;;;;14.77;10.02;;;;;;;;;;5059357;28;20024;-84
2022/07/22 04:14:31;;;;;;;12.63;10.23;;;;;;;;;;5070756;28;20025;-84
2022/07/22 04:16:57;;;;;;;13.02;10.18;;;;;;;;;;5058295;28;20087;-84
2022/07/22 04:19:23;;;;;;;12.52;9.15;;;;;;;;;;5075178;28;20032;-84
2022/07/22 04:21:49;;;;;;;13.80;9.77;;;;;;;;;;5058892;28;20431;-85
2022/07/22 04:24:15;;;;;;;14.55;10.35;;;;;;;;;;5056509;28;20024;-84
2022/07/22 04:26:41;;;;;;;13.27;9.38;;;;;;;;;;5056367;28;20371;-84
2022/07/22 04:29:07;;;;;;;13.30;9.27;;;;;;;;;;5069718;28;20112;-84
2022/07/22 04:31:33;;;;;;;15.23;9.70;;;;;;;;;;5041613;28;20045;-84
2022/07/22 04:33:59;;;;;;;14.23;9.30;;;;;;;;;;5058022;28;20498;-84
2022/07/22 04:36:25;;;;;;;13.18;9.73;;;;;;;;;;5040035;28;20033;-84
2022/07/22 04:38:51;;;;;;;11.77;9.48;;;;;;;;;;5044358;28;20016;-84
2022/07/22 04:41:17;;;;;;;11.98;9.25;;;;;;;;;;5048983;28;20041;-84
2022/07/22 04:43:43;;;;;;;14.30;9.40;;;;;;;;;;5077910;28;20031;-84
2022/07/22 04:46:09;;;;;;;12.38;9.63;;;;;;;;;;5080384;28;20115;-84
2022/07/22 04:48:35;;;;;;;15.25;10.40;;;;;;;;;;5050188;28;20108;-84
2022/07/22 04:51:02;;;;;;;13.05;9.20;;;;;;;;;;5048590;28;20085;-84
2022/07/22 04:53:29;;;;;;;11.93;9.68;;;;;;;;;;5074261;28;20032;-84
2022/07/22 04:55:55;;;;;;;13.05;8.95;;;;;;;;;;5057213;28;20115;-83
2022/07/22 04:58:21;;;;;;;12.13;9.18;;;;;;;;;;5069256;28;20041;-84
2022/07/22 05:00:47;;;;;;;14.70;9.77;;;;;;;;;;5058234;28;20025;-84
2022/07/22 05:03:13;;;;;;;12.75;9.05;;;;;;;;;;5059774;28;20028;-84
2022/07/22 05:05:39;;;;;;;12.43;8.82;;;;;;;;;;5060330;28;20025;-83
2022/07/22 05:08:05;;;;;;;14.27;9.27;;;;;;;;;;5072279;28;20028;-84
2022/07/22 05:10:32;;;;;;;13.70;9.70;;;;;;;;;;5060787;28;20111;-84
2022/07/22 05:12:58;;;;;;;14.30;9.40;;;;;;;;;;5054539;28;20087;-84
2022/07/22 05:15:24;;;;;;;11.40;9.02;;;;;;;;;;5057476;28;20086;-84
2022/07/22 05:17:50;;;;;;;13.93;8.98;;;;;;;;;;5044175;28;20021;-84
2022/07/22 05:20:16;;;;;;;13.38;9.45;;;;;;;;;;5054269;28;20549;-85
2022/07/22 05:22:42;;;;;;;13.98;9.23;;;;;;;;;;5036208;28;20029;-85
2022/07/22 05:25:09;;;;;;;11.32;9.00;;;;;;;;;;5052917;28;20028;-84
2022/07/22 05:27:35;;;;;;;11.40;8.30;;;;;;;;;;5058421;28;20052;-84
2022/07/22 05:30:01;;;;;;;10.95;8.93;;;;;;;;;;5036358;28;20052;-84
2022/07/22 05:32:27;;;;;;;12.20;9.23;;;;;;;;;;5047638;28;20101;-85
2022/07/22 05:34:53;;;;;;;11.32;8.60;;;;;;;;;;5033871;28;20065;-85
2022/07/22 05:37:19;;;;;;;11.05;8.80;;;;;;;;;;5053373;28;20021;-85
2022/07/22 05:39:45;;;;;;;12.32;9.63;;;;;;;;;;5054634;28;20063;-85
2022/07/22 05:42:11;;;;;;;11.85;8.90;;;;;;;;;;5050070;28;20021;-85
2022/07/22 05:44:37;;;;;;;10.77;8.60;;;;;;;;;;5055239;28;20025;-84
2022/07/22 05:47:03;;;;;;;10.77;8.20;;;;;;;;;;5047495;28;20030;-84
2022/07/22 05:49:29;;;;;;;11.15;8.52;;;;;;;;;;5051941;28;20036;-85
2022/07/22 05:52:00;;;;;;;11.00;8.32;;;;;;;;;;5054300;28;20029;-85
2022/07/22 05:54:26;;;;;;;12.32;9.05;;;;;;;;;;5054396;28;20023;-84
2022/07/22 05:56:52;;;;;;;11.00;8.98;;;;;;;;;;5059335;28;20490;-84
2022/07/22 05:59:18;;;;;;;11.55;9.02;;;;;;;;;;5065826;28;20033;-85
2022/07/22 06:01:44;;;;;;;11.10;8.93;;;;;;;;;;5037695;28;20017;-84
2022/07/22 06:04:10;;;;;;;10.98;7.60;;;;;;;;;;5037344;28;20021;-84
2022/07/22 06:06:36;;;;;;;9.93;7.65;;;;;;;;;;5070563;28;20390;-85
2022/07/22 06:09:02;;;;;;;10.68;7.53;;;;;;;;;;5064534;28;20024;-85
2022/07/22 06:11:28;;;;;;;9.63;8.43;;;;;;;;;;5054032;28;20040;-84
2022/07/22 06:13:54;;;;;;;11.18;8.10;;;;;;;;;;5057667;28;20487;-84
2022/07/22 06:16:20;;;;;;;10.55;7.82;;;;;;;;;;5056528;28;20033;-85
2022/07/22 06:18:46;;;;;;;11.38;7.70;;;;;;;;;;5054472;28;20483;-85
2022/07/22 06:21:12;;;;;;;10.70;8.32;;;;;;;;;;5054583;28;20025;-85
2022/07/22 06:23:38;;;;;;;9.68;7.97;;;;;;;;;;5035983;28;20032;-84
2022/07/22 06:26:04;;;;;;;10.20;8.35;;;;;;;;;;5049769;28;20032;-84
2022/07/22 06:28:30;;;;;;;12.63;8.20;;;;;;;;;;5041339;28;20025;-84
2022/07/22 06:30:56;;;;;;;10.32;8.15;;;;;;;;;;5055161;28;20017;-85
2022/07/22 06:33:22;;;;;;;11.10;8.02;;;;;;;;;;5055218;28;20111;-84
2022/07/22 06:35:48;;;;;;;10.00;8.38;;;;;;;;;;5038909;28;20021;-85
2022/07/22 06:38:14;;;;;;;11.57;8.35;;;;;;;;;;5042679;28;20037;-84
2022/07/22 06:40:40;;;;;;;11.95;9.02;;;;;;;;;;5044376;28;20103;-85
2022/07/22 06:43:06;;;;;;;10.68;8.25;;;;;;;;;;5041084;28;20048;-84
2022/07/22 06:45:32;;;;;;;10.00;8.43;;;;;;;;;;5058353;28;20522;-84
2022/07/22 06:47:58;;;;;;;11.80;8.05;;;;;;;;;;5058173;28;20021;-84
2022/07/22 06:50:24;;;;;;;10.52;8.35;;;;;;;;;;5060613;28;20043;-83
2022/07/22 06:52:51;;;;;;;10.70;8.43;;;;;;;;;;5061096;28;20028;-84
2022/07/22 06:55:17;;;;;;;11.20;8.82;;;;;;;;;;5060387;28;20033;-84
2022/07/22 06:57:43;;;;;;;12.70;8.32;;;;;;;;;;5060241;28;20028;-83
2022/07/22 07:00:09;;;;;;;11.25;8.15;;;;;;;;;;5056313;28;20031;-85
2022/07/22 07:02:36;;;;;;;11.60;8.90;;;;;;;;;;5040927;28;20021;-85
2022/07/22 07:05:02;;;;;;;11.65;8.10;;;;;;;;;;5040038;28;20544;-85
2022/07/22 07:07:28;;;;;;;9.90;8.05;;;;;;;;;;5068544;28;20112;-83
2022/07/22 07:09:58;;;;;;;11.75;8.25;;;;;;;;;;5058536;28;20082;-84
2022/07/22 07:12:24;;;;;;;12.43;9.52;;;;;;;;;;5058968;28;20017;-83
2022/07/22 07:14:50;;;;;;;11.90;8.65;;;;;;;;;;5066215;28;20024;-84
2022/07/22 07:17:16;;;;;;;10.82;8.95;;;;;;;;;;5055906;28;20025;-84
2022/07/22 07:19:42;;;;;;;11.55;9.13;;;;;;;;;;5050539;28;20122;-84
2022/07/22 07:22:08;;;;;;;11.88;9.20;;;;;;;;;;5060191;28;20064;-85
2022/07/22 07:24:34;;;;;;;13.20;8.85;;;;;;;;;;5042497;28;20049;-84
2022/07/22 07:27:00;;;;;;;10.85;8.85;;;;;;;;;;5039925;28;20496;-83
2022/07/22 07:29:26;;;;;;;11.32;8.75;;;;;;;;;;5061073;28;20099;-84
2022/07/22 07:31:52;;;;;;;11.45;9.30;;;;;;;;;;5078725;28;20033;-84
2022/07/22 07:34:18;;;;;;;13.48;8.98;;;;;;;;;;5078680;28;20185;-83
2022/07/22 07:36:44;;;;;;;10.60;8.73;;;;;;;;;;5063231;28;20390;-84
2022/07/22 07:39:10;;;;;;;10.70;8.82;;;;;;;;;;5066867;28;20064;-84
2022/07/22 07:41:37;;;;;;;11.57;9.52;;;;;;;;;;5061931;28;20029;-84
2022/07/22 07:44:03;;;;;;;11.52;9.13;;;;;;;;;;5078971;28;20417;-83
2022/07/22 07:46:29;;;;;;;10.32;8.23;;;;;;;;;;5077947;28;20395;-84
2022/07/22 07:48:55;;;;;;;10.95;8.90;;;;;;;;;;5070286;28;20029;-85
2022/07/22 07:51:21;;;;;;;12.23;9.43;;;;;;;;;;5040517;28;20120;-85
2022/07/22 07:53:47;;;;;;;9.93;8.60;;;;;;;;;;5077435;28;20056;-85
2022/07/22 07:56:13;;;;;;;11.32;8.95;;;;;;;;;;5059104;28;20032;-84
2022/07/22 07:58:39;;;;;;;12.40;8.43;;;;;;;;;;5055701;28;20074;-84
2022/07/22 08:01:05;;;;;;;11.48;8.82;;;;;;;;;;5040084;28;20032;-85
2022/07/22 08:03:31;;;;;;;10.88;9.70;;;;;;;;;;5078841;28;20044;-85
2022/07/22 08:05:59;;;;;;;11.43;8.65;;;;;;;;;;5065269;28;20045;-85
2022/07/22 08:08:25;;;;;;;11.02;8.65;;;;;;;;;;5058071;28;20017;-85
2022/07/22 08:10:51;;;;;;;10.45;8.63;;;;;;;;;;5040414;28;20056;-85
2022/07/22 08:13:17;;;;;;;10.88;8.82;;;;;;;;;;5059897;28;20028;-84
2022/07/22 08:15:43;;;;;;;9.85;8.05;;;;;;;;;;5054860;28;20467;-85
2022/07/22 08:18:10;;;;;;;10.93;8.93;;;;;;;;;;5036947;28;20126;-85
2022/07/22 08:20:36;;;;;;;13.18;8.95;;;;;;;;;;5051266;28;20299;-86
2022/07/22 08:23:02;;;;;;;10.95;9.43;;;;;;;;;;5056073;28;20025;-85
2022/07/22 08:25:28;;;;;;;10.50;9.40;;;;;;;;;;5044303;28;20105;-85
2022/07/22 08:27:54;;;;;;;10.63;8.10;;;;;;;;;;5034113;28;20098;-85
2022/07/22 08:30:23;;;;;;;10.30;8.38;;;;;;;;;;5039383;28;20048;-86
2022/07/22 08:32:49;;;;;;;9.63;8.23;;;;;;;;;;5050126;28;20036;-85
2022/07/22 08:35:15;;;;;;;10.40;8.38;;;;;;;;;;5052036;28;20119;-85
2022/07/22 08:37:41;;;;;;;9.52;8.52;;;;;;;;;;5052646;28;20033;-85
2022/07/22 08:40:08;;;;;;;10.90;8.77;;;;;;;;;;5050530;28;20099;-85
2022/07/22 08:42:38;;;;;;;10.05;8.80;;;;;;;;;;5054072;28;20032;-84
2022/07/22 08:45:04;;;;;;;12.07;8.68;;;;;;;;;;5038309;28;20026;-85
2022/07/22 08:47:30;;;;;;;10.70;7.85;;;;;;;;;;5035227;28;20025;-85
2022/07/22 08:49:57;;;;;;;9.95;8.48;;;;;;;;;;5053907;28;20021;-85
2022/07/22 08:52:23;;;;;;;10.23;8.23;;;;;;;;;;5050880;28;20035;-87
2022/07/22 08:54:49;;;;;;;11.68;9.65;;;;;;;;;;5034583;28;20033;-84
2022/07/22 08:57:15;;;;;;;10.45;8.35;;;;;;;;;;5035575;28;20029;-84
2022/07/22 08:59:58;;;;;;;10.18;8.27;;;;;;;;;;5036701;28;20031;-88
2022/07/22 09:02:24;;;;;;;9.93;8.07;;;;;;;;;;5050583;28;20033;-84
2022/07/22 09:04:54;;;;;;;9.02;7.45;;;;;;;;;;5052690;28;20017;-86
2022/07/22 09:07:24;;;;;;;9.95;7.72;;;;;;;;;;5060084;28;20368;-86
2022/07/22 09:09:51;;;;;;;9.57;8.30;;;;;;;;;;5046608;28;20028;-85
2022/07/22 09:12:17;;;;;;;9.60;7.90;;;;;;;;;;5033973;28;20025;-86
2022/07/22 09:14:47;;;;;;;9.32;7.47;;;;;;;;;;5053157;28;20104;-89
2022/07/22 09:17:28;;;;;;;7.95;6.70;;;;;;;;;;5037462;28;20032;-86
2022/07/22 09:19:55;;;;;;;8.70;7.80;;;;;;;;;;5054238;28;20020;-87
2022/07/22 09:22:54;;;;;;;9.55;8.55;;;;;;;;;;5048819;28;20071;-84
2022/07/22 09:25:20;;;;;;;9.57;7.95;;;;;;;;;;4937263;29;20042;-86
2022/07/22 09:27:46;;;;;;;9.25;8.20;;;;;;;;;;4933616;29;20086;-86
2022/07/22 09:30:14;;;;;;;10.45;8.15;;;;;;;;;;4948758;29;20488;-85
2022/07/22 09:32:41;;;;;;;9.10;8.00;;;;;;;;;;4955938;29;20039;-84
2022/07/22 09:35:07;;;;;;;8.35;7.00;;;;;;;;;;4936735;29;20035;-85
2022/07/22 09:37:33;;;;;;;8.45;7.28;;;;;;;;;;4938583;29;20067;-84
2022/07/22 09:40:15;;;;;;;9.48;8.18;;;;;;;;;;4945198;29;20413;-84
2022/07/22 09:43:01;;;;;;;9.43;7.95;;;;;;;;;;4959100;29;20054;-85
2022/07/22 09:45:28;;;;;;;8.50;7.45;;;;;;;;;;4955805;29;20046;-85
2022/07/22 09:47:56;;;;;;;11.68;8.23;;;;;;;;;;4955536;29;20410;-84
2022/07/22 09:50:23;;;;;;;8.00;7.20;;;;;;;;;;4944835;29;20028;-85
2022/07/22 09:52:50;;;;;;;9.23;7.32;;;;;;;;;;4952390;29;20114;-86
2022/07/22 09:55:18;;;;;;;8.88;7.88;;;;;;;;;;4952457;29;20035;-85
2022/07/22 09:57:44;;;;;;;8.57;7.22;;;;;;;;;;4953478;28;20214;-84
2022/07/22 10:00:12;;;;;;;9.23;7.47;;;;;;;;;;4950147;28;20453;-87
2022/07/22 10:02:58;;;;;;;9.95;7.85;;;;;;;;;;5031728;28;20037;-85
2022/07/22 10:05:29;;;;;;;9.82;7.85;;;;;;;;;;5029171;28;20028;-87
2022/07/22 10:07:56;;;;;;;9.43;7.65;;;;;;;;;;5049337;28;20017;-85
2022/07/22 10:10:23;;;;;;;8.55;7.15;;;;;;;;;;5045004;28;20037;-85
2022/07/22 10:12:50;;;;;;;8.57;7.13;;;;;;;;;;5026023;28;20504;-86
2022/07/22 10:15:16;;;;;;;9.00;7.75;;;;;;;;;;5036294;28;20025;-85
2022/07/22 10:17:44;;;;;;;9.70;7.80;;;;;;;;;;5039085;28;20058;-86
2022/07/22 10:20:11;;;;;;;8.90;7.32;;;;;;;;;;5047704;28;20108;-85
2022/07/22 10:22:42;;;;;;;9.00;7.93;;;;;;;;;;5033932;28;20030;-85
2022/07/22 10:25:10;;;;;;;8.25;7.40;;;;;;;;;;5035329;28;20029;-85
2022/07/22 10:27:54;;;;;;;10.80;7.70;;;;;;;;;;5034014;28;20053;-86
2022/07/22 10:30:26;;;;;;;8.95;7.05;;;;;;;;;;5034909;28;20144;-85
2022/07/22 10:33:11;;;;;;;8.63;7.32;;;;;;;;;;5033039;28;20029;-85
2022/07/22 10:35:38;;;;;;;10.63;7.53;;;;;;;;;;5045273;28;20032;-86
2022/07/22 10:38:05;;;;;;;10.32;7.25;;;;;;;;;;5045468;28;20029;-86
2022/07/22 10:40:46;;;;;;;8.57;7.65;;;;;;;;;;5035998;28;20036;-85
2022/07/22 10:43:13;;;;;;;9.15;7.32;;;;;;;;;;5035786;28;20030;-85
2022/07/22 10:45:40;;;;;;;9.73;7.55;;;;;;;;;;5032643;28;20064;-87
2022/07/22 10:48:09;;;;;;;9.00;7.40;;;;;;;;;;5046354;28;20099;-84
2022/07/22 10:50:35;;;;;;;8.50;7.13;;;;;;;;;;5036158;28;20021;-84
2022/07/22 10:53:02;;;;;;;8.95;6.82;;;;;;;;;;5035387;28;20070;-84
2022/07/22 10:55:28;;;;;;;8.55;6.70;;;;;;;;;;5034843;28;20091;-84
2022/07/22 10:57:55;;;;;;;8.13;6.85;;;;;;;;;;5037909;28;20406;-84
2022/07/22 11:00:21;;;;;;;9.43;6.90;;;;;;;;;;5039054;28;20032;-84
2022/07/22 11:02:47;;;;;;;8.98;6.65;;;;;;;;;;5048840;28;20033;-83
2022/07/22 11:05:13;;;;;;;7.70;6.40;;;;;;;;;;5051851;28;20029;-84
2022/07/22 11:07:46;;;;;;;8.60;6.70;;;;;;;;;;5033466;28;20030;-83
2022/07/22 11:10:16;;;;;;;8.50;6.85;;;;;;;;;;5042492;28;20151;-83
2022/07/22 11:12:43;;;;;;;8.68;6.82;;;;;;;;;;5033491;28;20029;-83
2022/07/22 11:15:09;;;;;;;7.97;6.53;;;;;;;;;;5035753;28;20064;-84
2022/07/22 11:17:36;;;;;;;10.45;6.60;;;;;;;;;;5043968;28;20052;-84
2022/07/22 11:20:06;;;;;;;7.97;6.70;;;;;;;;;;5034784;28;20021;-83
2022/07/22 11:22:33;;;;;;;8.73;6.68;;;;;;;;;;5035583;28;20026;-83
2022/07/22 11:25:01;;;;;;;8.65;6.60;;;;;;;;;;5035903;28;20083;-83
2022/07/22 11:27:27;;;;;;;9.60;7.43;;;;;;;;;;5056464;28;20663;-83
2022/07/22 11:29:53;;;;;;;9.77;6.60;;;;;;;;;;5070120;28;20051;-83
2022/07/22 11:32:21;;;;;;;9.05;6.65;;;;;;;;;;5059566;28;20029;-82
2022/07/22 11:34:47;;;;;;;8.25;6.63;;;;;;;;;;5040027;28;20567;-83
2022/07/22 11:37:17;;;;;;;8.30;6.53;;;;;;;;;;5056827;28;20104;-83
2022/07/22 11:39:43;;;;;;;7.75;6.65;;;;;;;;;;5039062;28;20029;-83
2022/07/22 11:42:09;;;;;;;8.55;6.72;;;;;;;;;;5038709;28;20029;-84
2022/07/22 11:44:36;;;;;;;7.70;6.40;;;;;;;;;;5056200;28;20025;-83
2022/07/22 11:47:03;;;;;;;7.78;6.43;;;;;;;;;;5058878;28;20086;-84
2022/07/22 11:49:33;;;;;;;8.65;7.13;;;;;;;;;;5056134;28;20108;-83
2022/07/22 11:51:59;;;;;;;8.65;6.63;;;;;;;;;;5056150;28;20021;-83
2022/07/22 11:54:25;;;;;;;7.47;6.57;;;;;;;;;;5039534;28;20506;-83
2022/07/22 11:56:51;;;;;;;8.30;6.55;;;;;;;;;;5049158;28;20032;-83
2022/07/22 11:59:18;;;;;;;7.95;6.35;;;;;;;;;;5040152;28;20510;-83
2022/07/22 12:01:46;;;;;;;8.50;7.10;;;;;;;;;;5068791;28;20052;-83
2022/07/22 12:04:13;;;;;;;8.35;7.00;;;;;;;;;;5062368;28;20116;-82
2022/07/22 12:06:40;;;;;;;7.82;6.80;;;;;;;;;;5036237;28;20026;-83
2022/07/22 12:09:07;;;;;;;9.70;6.63;;;;;;;;;;5062243;28;20028;-82
2022/07/22 12:11:34;;;;;;;8.82;6.90;;;;;;;;;;5068554;28;20025;-83
2022/07/22 12:14:05;;;;;;;8.73;7.25;;;;;;;;;;5060757;28;20040;-84
2022/07/22 12:16:31;;;;;;;11.02;7.20;;;;;;;;;;5056503;28;20052;-82
2022/07/22 12:18:59;;;;;;;7.95;6.85;;;;;;;;;;5054694;28;20032;-82
2022/07/22 12:21:30;;;;;;;7.95;7.03;;;;;;;;;;5069942;28;20097;-83
2022/07/22 12:23:57;;;;;;;8.23;6.80;;;;;;;;;;5059151;28;20029;-81
2022/07/22 12:26:40;;;;;;;7.65;6.47;;;;;;;;;;5059698;28;20029;-83
2022/07/22 12:29:22;;;;;;;8.15;6.45;;;;;;;;;;5040067;28;20418;-82
2022/07/22 12:31:49;;;;;;;7.70;6.55;;;;;;;;;;5057382;28;20040;-82
2022/07/22 12:34:15;;;;;;;7.65;6.30;;;;;;;;;;5060550;28;20059;-83
2022/07/22 12:36:45;;;;;;;9.27;6.75;;;;;;;;;;5054953;28;20072;-83
2022/07/22 12:39:18;;;;;;;7.93;6.82;;;;;;;;;;5048003;28;20029;-83
2022/07/22 12:41:53;;;;;;;8.65;7.35;;;;;;;;;;5042976;28;20037;-82
2022/07/22 12:44:23;;;;;;;7.10;6.40;;;;;;;;;;5054204;28;20032;-83
2022/07/22 12:46:54;;;;;;;9.25;7.25;;;;;;;;;;5035048;28;20025;-83
2022/07/22 12:49:21;;;;;;;8.80;6.63;;;;;;;;;;5043504;28;20021;-83
2022/07/22 12:52:26;;;;;;;8.57;6.65;;;;;;;;;;5055065;28;20033;-83
2022/07/22 12:54:52;;;;;;;8.52;6.35;;;;;;;;;;5009641;28;20040;-84
2022/07/22 12:57:18;;;;;;;7.82;6.60;;;;;;;;;;5002546;28;20038;-84
2022/07/22 12:59:52;;;;;;;11.00;6.97;;;;;;;;;;4998542;28;20045;-84
2022/07/22 13:02:18;;;;;;;8.27;6.63;;;;;;;;;;4998414;28;20030;-84
2022/07/22 13:04:44;;;;;;;8.05;7.03;;;;;;;;;;4998568;28;20536;-83
2022/07/22 13:07:10;;;;;;;10.32;7.55;;;;;;;;;;4998748;28;20039;-83
2022/07/22 13:09:36;;;;;;;8.95;7.30;;;;;;;;;;5000280;28;20038;-84
2022/07/22 13:12:02;;;;;;;8.40;7.07;;;;;;;;;;4997101;28;20049;-83
2022/07/22 13:14:28;;;;;;;7.65;6.85;;;;;;;;;;4997513;28;20138;-83
2022/07/22 13:16:54;;;;;;;8.23;7.20;;;;;;;;;;4982589;28;20078;-83
2022/07/22 13:19:20;;;;;;;8.18;6.80;;;;;;;;;;4981290;28;20136;-83
2022/07/22 13:21:47;;;;;;;8.00;7.15;;;;;;;;;;4992914;28;20524;-84
2022/07/22 13:24:14;;;;;;;8.68;7.22;;;;;;;;;;4984502;28;20511;-83
2022/07/22 13:26:40;;;;;;;8.85;7.00;;;;;;;;;;5040933;28;20092;-84
2022/07/22 13:29:06;;;;;;;9.50;7.07;;;;;;;;;;5057929;28;20021;-84
2022/07/22 13:31:32;;;;;;;8.95;7.07;;;;;;;;;;5054918;28;20064;-84
2022/07/22 13:33:58;;;;;;;8.35;7.10;;;;;;;;;;5058001;28;20399;-82
2022/07/22 13:36:24;;;;;;;9.68;6.90;;;;;;;;;;5066871;28;20526;-84
2022/07/22 13:38:51;;;;;;;7.70;6.53;;;;;;;;;;5047635;28;20033;-83
2022/07/22 13:41:17;;;;;;;10.10;7.63;;;;;;;;;;5051600;28;20390;-83
2022/07/22 13:43:44;;;;;;;9.80;7.07;;;;;;;;;;5057399;28;20055;-83
2022/07/22 13:46:10;;;;;;;7.82;6.90;;;;;;;;;;5040795;28;20526;-84
2022/07/22 13:48:36;;;;;;;9.88;7.60;;;;;;;;;;5037771;28;20540;-84
2022/07/22 13:51:04;;;;;;;8.25;7.20;;;;;;;;;;5067244;28;20498;-84
2022/07/22 13:53:30;;;;;;;9.18;7.57;;;;;;;;;;5075501;28;20074;-83
2022/07/22 13:55:56;;;;;;;9.88;7.47;;;;;;;;;;5075793;28;20052;-83
2022/07/22 13:58:22;;;;;;;9.15;7.75;;;;;;;;;;5070851;28;20509;-83
2022/07/22 14:00:48;;;;;;;8.23;7.43;;;;;;;;;;5064771;28;20035;-84
2022/07/22 14:03:14;;;;;;;8.45;7.25;;;;;;;;;;5052236;28;20036;-84
2022/07/22 14:05:40;;;;;;;8.38;6.70;;;;;;;;;;5058157;28;20021;-83
2022/07/22 14:08:06;;;;;;;7.63;6.78;;;;;;;;;;5053174;28;20472;-83
2022/07/22 14:10:32;;;;;;;7.72;6.90;;;;;;;;;;5051541;28;20025;-83
2022/07/22 14:12:58;;;;;;;10.57;7.63;;;;;;;;;;5033701;28;20033;-83
2022/07/22 14:15:24;;;;;;;10.25;7.63;;;;;;;;;;5049095;28;20445;-84
2022/07/22 14:17:50;;;;;;;9.30;8.30;;;;;;;;;;5037510;28;20052;-84
2022/07/22 14:20:16;;;;;;;8.93;7.60;;;;;;;;;;5052896;28;20111;-85
2022/07/22 14:22:42;;;;;;;10.80;7.60;;;;;;;;;;5034003;28;20025;-85
2022/07/22 14:25:08;;;;;;;7.55;6.72;;;;;;;;;;5034009;28;20029;-84
2022/07/22 14:27:35;;;;;;;10.15;7.50;;;;;;;;;;5033581;28;20045;-83
2022/07/22 14:30:01;;;;;;;8.30;7.50;;;;;;;;;;5033452;28;20140;-84
2022/07/22 14:32:27;;;;;;;8.30;7.40;;;;;;;;;;5033327;28;20037;-84
2022/07/22 14:34:53;;;;;;;8.98;8.00;;;;;;;;;;5051766;28;20033;-84